sensor_id;sensor_type;location;lat;lon;timestamp;pressure;altitude;pressure_sealevel;temperature;humidity
37878;BME280;23715;53.652;8.516;2023-03-18T00:00:06;100731.20;;;12.66;100.00
37878;BME280;23715;53.652;8.516;2023-03-18T00:05:10;100743.86;;;12.56;100.00
37878;BME280;23715;53.652;8.516;2023-03-18T00:10:11;100752.60;;;12.54;100.00
37878;BME280;23715;53.652;8.516;2023-03-18T00:15:13;100755.05;;;12.47;100.00
37878;BME280;23715;53.652;8.516;2023-03-18T00:20:16;100751.43;;;12.52;100.00
37878;BME280;23715;53.652;8.516;2023-03-18T00:25:19;100745.86;;;12.54;100.00
37878;BME280;23715;53.652;8.516;2023-03-18T00:30:21;100751.22;;;12.63;100.00
37878;BME280;23715;53.652;8.516;2023-03-18T00:35:22;100740.94;;;12.63;100.00
37878;BME280;23715;53.652;8.516;2023-03-18T00:40:22;100742.84;;;12.66;100.00
37878;BME280;23715;53.652;8.516;2023-03-18T00:45:24;100742.46;;;12.75;100.00
37878;BME280;23715;53.652;8.516;2023-03-18T00:50:25;100741.40;;;12.72;100.00
37878;BME280;23715;53.652;8.516;2023-03-18T00:55:26;100740.97;;;12.77;100.00
37878;BME280;23715;53.652;8.516;2023-03-18T01:00:26;100731.66;;;12.89;100.00
37878;BME280;23715;53.652;8.516;2023-03-18T01:05:27;100738.77;;;12.90;100.00
37878;BME280;23715;53.652;8.516;2023-03-18T01:10:28;100738.09;;;12.78;100.00
37878;BME280;23715;53.652;8.516;2023-03-18T01:15:28;100738.56;;;12.74;100.00
37878;BME280;23715;53.652;8.516;2023-03-18T01:20:29;100741.77;;;12.73;100.00
37878;BME280;23715;53.652;8.516;2023-03-18T01:25:29;100741.40;;;12.72;100.00
37878;BME280;23715;53.652;8.516;2023-03-18T01:30:29;100753.08;;;12.63;100.00
37878;BME280;23715;53.652;8.516;2023-03-18T01:35:31;100751.58;;;12.64;100.00
37878;BME280;23715;53.652;8.516;2023-03-18T01:40:34;100747.67;;;12.63;100.00
37878;BME280;23715;53.652;8.516;2023-03-18T01:45:36;100748.83;;;12.60;100.00
37878;BME280;23715;53.652;8.516;2023-03-18T01:50:37;100753.98;;;12.44;100.00
37878;BME280;23715;53.652;8.516;2023-03-18T01:55:38;100748.59;;;12.44;100.00
37878;BME280;23715;53.652;8.516;2023-03-18T02:00:42;100746.59;;;12.46;100.00
37878;BME280;23715;53.652;8.516;2023-03-18T02:05:44;100738.50;;;12.46;100.00
37878;BME280;23715;53.652;8.516;2023-03-18T02:10:45;100749.47;;;12.35;100.00
37878;BME280;23715;53.652;8.516;2023-03-18T02:15:54;100750.59;;;12.42;100.00
37878;BME280;23715;53.652;8.516;2023-03-18T02:21:16;100751.29;;;12.44;100.00
37878;BME280;23715;53.652;8.516;2023-03-18T02:26:32;100744.08;;;12.35;100.00
37878;BME280;23715;53.652;8.516;2023-03-18T02:31:32;100758.42;;;12.25;100.00
37878;BME280;23715;53.652;8.516;2023-03-18T02:36:33;100752.53;;;12.36;100.00
37878;BME280;23715;53.652;8.516;2023-03-18T02:41:36;100746.91;;;12.43;100.00
37878;BME280;23715;53.652;8.516;2023-03-18T02:51:43;100754.16;;;12.33;100.00
37878;BME280;23715;53.652;8.516;2023-03-18T02:56:44;100753.03;;;12.35;100.00
37878;BME280;23715;53.652;8.516;2023-03-18T03:01:49;100758.91;;;12.35;100.00
37878;BME280;23715;53.652;8.516;2023-03-18T03:06:51;100763.65;;;12.37;100.00
37878;BME280;23715;53.652;8.516;2023-03-18T03:11:53;100751.85;;;12.24;100.00
37878;BME280;23715;53.652;8.516;2023-03-18T03:16:55;100757.50;;;12.30;100.00
37878;BME280;23715;53.652;8.516;2023-03-18T03:21:56;100765.02;;;12.27;100.00
37878;BME280;23715;53.652;8.516;2023-03-18T03:26:56;100758.84;;;12.30;100.00
37878;BME280;23715;53.652;8.516;2023-03-18T03:31:57;100775.19;;;12.19;100.00
37878;BME280;23715;53.652;8.516;2023-03-18T03:36:57;100779.85;;;12.27;100.00
37878;BME280;23715;53.652;8.516;2023-03-18T03:41:57;100777.39;;;12.29;100.00
37878;BME280;23715;53.652;8.516;2023-03-18T03:46:59;100786.26;;;12.26;100.00
37878;BME280;23715;53.652;8.516;2023-03-18T03:52:00;100788.39;;;12.22;100.00
37878;BME280;23715;53.652;8.516;2023-03-18T03:57:02;100779.54;;;12.16;100.00
37878;BME280;23715;53.652;8.516;2023-03-18T04:02:03;100786.61;;;12.17;100.00
37878;BME280;23715;53.652;8.516;2023-03-18T04:07:03;100801.25;;;12.05;100.00
37878;BME280;23715;53.652;8.516;2023-03-18T04:12:03;100806.34;;;11.98;100.00
37878;BME280;23715;53.652;8.516;2023-03-18T04:17:04;100815.07;;;11.96;100.00
37878;BME280;23715;53.652;8.516;2023-03-18T04:22:06;100818.98;;;11.98;100.00
37878;BME280;23715;53.652;8.516;2023-03-18T04:27:09;100832.59;;;12.06;100.00
37878;BME280;23715;53.652;8.516;2023-03-18T04:32:11;100831.23;;;12.06;100.00
37878;BME280;23715;53.652;8.516;2023-03-18T04:37:12;100829.04;;;12.15;100.00
37878;BME280;23715;53.652;8.516;2023-03-18T04:42:14;100824.02;;;12.16;100.00
37878;BME280;23715;53.652;8.516;2023-03-18T04:47:16;100829.17;;;12.23;100.00
37878;BME280;23715;53.652;8.516;2023-03-18T04:52:16;100831.94;;;12.18;100.00
37878;BME280;23715;53.652;8.516;2023-03-18T04:57:18;100810.25;;;12.09;100.00
37878;BME280;23715;53.652;8.516;2023-03-18T05:02:20;100833.45;;;12.16;100.00
37878;BME280;23715;53.652;8.516;2023-03-18T05:07:21;100845.80;;;11.99;100.00
37878;BME280;23715;53.652;8.516;2023-03-18T05:12:23;100844.24;;;11.81;100.00
37878;BME280;23715;53.652;8.516;2023-03-18T05:17:23;100861.76;;;11.81;100.00
37878;BME280;23715;53.652;8.516;2023-03-18T05:22:25;100856.16;;;11.79;100.00
37878;BME280;23715;53.652;8.516;2023-03-18T05:27:27;100857.64;;;11.77;100.00
37878;BME280;23715;53.652;8.516;2023-03-18T05:32:29;100860.66;;;11.68;100.00
37878;BME280;23715;53.652;8.516;2023-03-18T05:37:31;100874.25;;;11.57;100.00
37878;BME280;23715;53.652;8.516;2023-03-18T05:42:34;100880.24;;;11.45;100.00
37878;BME280;23715;53.652;8.516;2023-03-18T05:47:34;100891.09;;;11.49;100.00
37878;BME280;23715;53.652;8.516;2023-03-18T05:52:39;100884.16;;;11.47;100.00
37878;BME280;23715;53.652;8.516;2023-03-18T05:57:42;100900.45;;;11.30;100.00
37878;BME280;23715;53.652;8.516;2023-03-18T06:02:43;100900.70;;;11.32;100.00
37878;BME280;23715;53.652;8.516;2023-03-18T06:07:45;100907.05;;;11.31;100.00
37878;BME280;23715;53.652;8.516;2023-03-18T06:12:45;100898.03;;;11.42;100.00
37878;BME280;23715;53.652;8.516;2023-03-18T06:17:47;100898.25;;;11.45;100.00
37878;BME280;23715;53.652;8.516;2023-03-18T06:22:48;100910.77;;;11.56;100.00
37878;BME280;23715;53.652;8.516;2023-03-18T06:27:49;100906.99;;;11.52;100.00
37878;BME280;23715;53.652;8.516;2023-03-18T06:32:52;100915.33;;;11.49;100.00
37878;BME280;23715;53.652;8.516;2023-03-18T06:37:54;100926.69;;;11.53;100.00
37878;BME280;23715;53.652;8.516;2023-03-18T06:42:55;100933.11;;;11.62;100.00
37878;BME280;23715;53.652;8.516;2023-03-18T06:47:57;100941.64;;;11.67;100.00
37878;BME280;23715;53.652;8.516;2023-03-18T06:52:59;100960.14;;;11.50;100.00
37878;BME280;23715;53.652;8.516;2023-03-18T06:58:01;100966.06;;;11.60;100.00
37878;BME280;23715;53.652;8.516;2023-03-18T07:03:05;100982.48;;;11.57;100.00
37878;BME280;23715;53.652;8.516;2023-03-18T07:08:06;100993.43;;;11.49;100.00
37878;BME280;23715;53.652;8.516;2023-03-18T07:13:08;100991.28;;;11.59;100.00
37878;BME280;23715;53.652;8.516;2023-03-18T07:18:10;100996.04;;;11.61;100.00
37878;BME280;23715;53.652;8.516;2023-03-18T07:23:10;100990.39;;;11.64;100.00
37878;BME280;23715;53.652;8.516;2023-03-18T07:28:10;100986.19;;;11.56;100.00
37878;BME280;23715;53.652;8.516;2023-03-18T07:33:11;101004.66;;;11.55;100.00
37878;BME280;23715;53.652;8.516;2023-03-18T07:38:11;101021.28;;;11.60;100.00
37878;BME280;23715;53.652;8.516;2023-03-18T07:43:12;101030.70;;;11.44;100.00
37878;BME280;23715;53.652;8.516;2023-03-18T07:48:13;101043.63;;;11.50;100.00
37878;BME280;23715;53.652;8.516;2023-03-18T07:53:13;101043.17;;;11.61;100.00
37878;BME280;23715;53.652;8.516;2023-03-18T07:58:13;101053.83;;;11.62;100.00
37878;BME280;23715;53.652;8.516;2023-03-18T08:03:14;101060.89;;;11.84;100.00
37878;BME280;23715;53.652;8.516;2023-03-18T08:08:14;101056.50;;;11.99;100.00
37878;BME280;23715;53.652;8.516;2023-03-18T08:13:15;101062.72;;;12.05;100.00
37878;BME280;23715;53.652;8.516;2023-03-18T08:18:15;101065.67;;;12.02;100.00
37878;BME280;23715;53.652;8.516;2023-03-18T08:23:15;101074.92;;;12.09;100.00
37878;BME280;23715;53.652;8.516;2023-03-18T08:28:16;101074.08;;;11.87;100.00
37878;BME280;23715;53.652;8.516;2023-03-18T08:33:17;101084.73;;;11.89;100.00
37878;BME280;23715;53.652;8.516;2023-03-18T08:38:16;101091.16;;;11.82;100.00
37878;BME280;23715;53.652;8.516;2023-03-18T08:43:17;101103.83;;;11.76;100.00
37878;BME280;23715;53.652;8.516;2023-03-18T08:48:20;101116.34;;;11.93;100.00
37878;BME280;23715;53.652;8.516;2023-03-18T08:53:20;101116.66;;;12.15;100.00
37878;BME280;23715;53.652;8.516;2023-03-18T08:58:20;101128.75;;;12.20;100.00
37878;BME280;23715;53.652;8.516;2023-03-18T09:03:21;101128.16;;;12.32;100.00
37878;BME280;23715;53.652;8.516;2023-03-18T09:08:23;101142.89;;;12.43;100.00
37878;BME280;23715;53.652;8.516;2023-03-18T09:13:25;101145.13;;;12.63;100.00
37878;BME280;23715;53.652;8.516;2023-03-18T09:18:28;101135.96;;;13.30;100.00
37878;BME280;23715;53.652;8.516;2023-03-18T09:23:30;101125.76;;;13.57;100.00
37878;BME280;23715;53.652;8.516;2023-03-18T09:28:30;101127.06;;;13.43;100.00
37878;BME280;23715;53.652;8.516;2023-03-18T09:33:31;101139.27;;;13.28;100.00
37878;BME280;23715;53.652;8.516;2023-03-18T09:38:33;101151.63;;;13.01;100.00
37878;BME280;23715;53.652;8.516;2023-03-18T09:43:56;101146.16;;;13.17;100.00
37878;BME280;23715;53.652;8.516;2023-03-18T09:54:06;101139.17;;;13.73;100.00
37878;BME280;23715;53.652;8.516;2023-03-18T10:09:39;101139.11;;;13.92;100.00
37878;BME280;23715;53.652;8.516;2023-03-18T10:14:44;101139.22;;;14.10;100.00
37878;BME280;23715;53.652;8.516;2023-03-18T10:25:54;101139.97;;;14.68;100.00
37878;BME280;23715;53.652;8.516;2023-03-18T10:43:22;101156.25;;;14.72;100.00
37878;BME280;23715;53.652;8.516;2023-03-18T10:54:11;101159.19;;;14.92;100.00
37878;BME280;23715;53.652;8.516;2023-03-18T11:04:51;101166.37;;;14.97;100.00
37878;BME280;23715;53.652;8.516;2023-03-18T11:25:29;101175.05;;;14.73;100.00
37878;BME280;23715;53.652;8.516;2023-03-18T11:30:50;101174.91;;;14.75;100.00
37878;BME280;23715;53.652;8.516;2023-03-18T11:35:59;101174.01;;;14.84;100.00
37878;BME280;23715;53.652;8.516;2023-03-18T11:46:23;101193.64;;;13.88;100.00
37878;BME280;23715;53.652;8.516;2023-03-18T11:51:54;101206.04;;;14.14;100.00
37878;BME280;23715;53.652;8.516;2023-03-18T12:13:54;101230.41;;;14.04;100.00
37878;BME280;23715;53.652;8.516;2023-03-18T12:45:40;101205.04;;;14.90;100.00
37878;BME280;23715;53.652;8.516;2023-03-18T13:28:28;101226.69;;;14.62;100.00
37878;BME280;23715;53.652;8.516;2023-03-18T13:33:42;101223.94;;;14.48;100.00
37878;BME280;23715;53.652;8.516;2023-03-18T13:44:08;101232.88;;;14.82;100.00
37878;BME280;23715;53.652;8.516;2023-03-18T13:49:17;101227.34;;;15.01;100.00
37878;BME280;23715;53.652;8.516;2023-03-18T14:04:50;101205.86;;;15.18;100.00
37878;BME280;23715;53.652;8.516;2023-03-18T14:20:39;101195.06;;;15.58;100.00
37878;BME280;23715;53.652;8.516;2023-03-18T14:25:41;101185.44;;;16.30;100.00
37878;BME280;23715;53.652;8.516;2023-03-18T14:30:44;101172.27;;;16.43;100.00
37878;BME280;23715;53.652;8.516;2023-03-18T14:36:00;101170.63;;;16.54;100.00
37878;BME280;23715;53.652;8.516;2023-03-18T14:41:03;101158.27;;;16.60;100.00
37878;BME280;23715;53.652;8.516;2023-03-18T14:46:07;101150.75;;;16.54;100.00
37878;BME280;23715;53.652;8.516;2023-03-18T14:51:13;101149.52;;;16.40;100.00
37878;BME280;23715;53.652;8.516;2023-03-18T14:56:23;101155.33;;;16.15;100.00
37878;BME280;23715;53.652;8.516;2023-03-18T15:01:37;101162.99;;;16.24;100.00
37878;BME280;23715;53.652;8.516;2023-03-18T15:06:42;101160.67;;;16.33;100.00
37878;BME280;23715;53.652;8.516;2023-03-18T15:34:28;101159.44;;;16.96;100.00
37878;BME280;23715;53.652;8.516;2023-03-18T15:44:39;101154.52;;;17.04;100.00
37878;BME280;23715;53.652;8.516;2023-03-18T15:55:28;101154.80;;;16.84;100.00
37878;BME280;23715;53.652;8.516;2023-03-18T16:05:57;101159.70;;;16.42;100.00
37878;BME280;23715;53.652;8.516;2023-03-18T16:10:59;101162.82;;;16.21;100.00
37878;BME280;23715;53.652;8.516;2023-03-18T16:16:02;101159.42;;;16.19;100.00
37878;BME280;23715;53.652;8.516;2023-03-18T16:21:11;101160.91;;;16.13;100.00
37878;BME280;23715;53.652;8.516;2023-03-18T16:26:12;101166.20;;;15.93;100.00
37878;BME280;23715;53.652;8.516;2023-03-18T16:31:14;101170.78;;;15.92;100.00
37878;BME280;23715;53.652;8.516;2023-03-18T16:36:27;101173.67;;;15.95;100.00
37878;BME280;23715;53.652;8.516;2023-03-18T16:41:27;101183.53;;;15.96;100.00
37878;BME280;23715;53.652;8.516;2023-03-18T16:46:27;101180.28;;;15.92;100.00
37878;BME280;23715;53.652;8.516;2023-03-18T16:51:31;101185.34;;;15.91;100.00
37878;BME280;23715;53.652;8.516;2023-03-18T16:56:36;101195.96;;;15.80;100.00
37878;BME280;23715;53.652;8.516;2023-03-18T17:01:40;101200.42;;;15.72;100.00
37878;BME280;23715;53.652;8.516;2023-03-18T17:06:43;101208.08;;;15.54;100.00
37878;BME280;23715;53.652;8.516;2023-03-18T17:11:52;101217.08;;;15.59;100.00
37878;BME280;23715;53.652;8.516;2023-03-18T17:16:51;101236.39;;;15.56;100.00
37878;BME280;23715;53.652;8.516;2023-03-18T17:21:52;101236.35;;;15.52;100.00
37878;BME280;23715;53.652;8.516;2023-03-18T17:26:54;101236.52;;;15.36;100.00
37878;BME280;23715;53.652;8.516;2023-03-18T17:31:57;101230.46;;;15.07;100.00
37878;BME280;23715;53.652;8.516;2023-03-18T17:36:58;101236.69;;;14.89;100.00
37878;BME280;23715;53.652;8.516;2023-03-18T17:41:58;101242.36;;;14.58;100.00
37878;BME280;23715;53.652;8.516;2023-03-18T17:47:00;101251.70;;;14.50;100.00
37878;BME280;23715;53.652;8.516;2023-03-18T17:52:01;101258.27;;;14.38;100.00
37878;BME280;23715;53.652;8.516;2023-03-18T17:57:01;101272.70;;;14.19;100.00
37878;BME280;23715;53.652;8.516;2023-03-18T18:02:01;101277.08;;;14.06;100.00
37878;BME280;23715;53.652;8.516;2023-03-18T18:07:17;101284.34;;;13.76;100.00
37878;BME280;23715;53.652;8.516;2023-03-18T18:12:22;101285.77;;;13.71;100.00
37878;BME280;23715;53.652;8.516;2023-03-18T18:17:36;101298.77;;;13.71;100.00
37878;BME280;23715;53.652;8.516;2023-03-18T18:22:31;101298.48;;;13.45;100.00
37878;BME280;23715;53.652;8.516;2023-03-18T18:27:31;101297.74;;;13.43;100.00
37878;BME280;23715;53.652;8.516;2023-03-18T18:32:37;101299.73;;;13.25;100.00
37878;BME280;23715;53.652;8.516;2023-03-18T18:37:33;101303.53;;;13.03;100.00
37878;BME280;23715;53.652;8.516;2023-03-18T18:42:38;101311.00;;;13.05;100.00
37878;BME280;23715;53.652;8.516;2023-03-18T18:47:40;101314.03;;;13.06;100.00
37878;BME280;23715;53.652;8.516;2023-03-18T18:52:40;101321.26;;;12.96;100.00
37878;BME280;23715;53.652;8.516;2023-03-18T18:57:41;101315.63;;;12.78;100.00
37878;BME280;23715;53.652;8.516;2023-03-18T19:02:42;101310.34;;;12.61;100.00
37878;BME280;23715;53.652;8.516;2023-03-18T19:07:44;101313.89;;;12.67;100.00
37878;BME280;23715;53.652;8.516;2023-03-18T19:12:44;101321.97;;;12.52;100.00
37878;BME280;23715;53.652;8.516;2023-03-18T19:17:45;101323.20;;;12.48;100.00
37878;BME280;23715;53.652;8.516;2023-03-18T19:22:46;101318.73;;;12.74;100.00
37878;BME280;23715;53.652;8.516;2023-03-18T19:27:48;101323.92;;;12.71;100.00
37878;BME280;23715;53.652;8.516;2023-03-18T19:32:49;101321.78;;;12.75;100.00
37878;BME280;23715;53.652;8.516;2023-03-18T19:37:50;101327.81;;;12.88;100.00
37878;BME280;23715;53.652;8.516;2023-03-18T19:42:50;101331.77;;;12.99;100.00
37878;BME280;23715;53.652;8.516;2023-03-18T19:47:50;101333.62;;;12.99;100.00
37878;BME280;23715;53.652;8.516;2023-03-18T19:52:50;101329.90;;;13.05;100.00
37878;BME280;23715;53.652;8.516;2023-03-18T19:57:53;101332.30;;;13.08;100.00
37878;BME280;23715;53.652;8.516;2023-03-18T20:02:53;101341.52;;;13.21;100.00
37878;BME280;23715;53.652;8.516;2023-03-18T20:07:53;101338.98;;;13.29;100.00
37878;BME280;23715;53.652;8.516;2023-03-18T20:12:54;101335.99;;;13.38;100.00
37878;BME280;23715;53.652;8.516;2023-03-18T20:17:56;101342.67;;;13.34;100.00
37878;BME280;23715;53.652;8.516;2023-03-18T20:23:03;101347.36;;;13.32;100.00
37878;BME280;23715;53.652;8.516;2023-03-18T20:28:05;101356.44;;;13.31;100.00
37878;BME280;23715;53.652;8.516;2023-03-18T20:33:06;101404.53;;;13.16;100.00
37878;BME280;23715;53.652;8.516;2023-03-18T20:38:11;101397.57;;;12.98;100.00
37878;BME280;23715;53.652;8.516;2023-03-18T20:43:18;101407.71;;;13.37;100.00
37878;BME280;23715;53.652;8.516;2023-03-18T20:48:18;101413.49;;;13.63;100.00
37878;BME280;23715;53.652;8.516;2023-03-18T20:53:24;101393.18;;;13.43;100.00
37878;BME280;23715;53.652;8.516;2023-03-18T20:58:27;101396.04;;;12.21;100.00
37878;BME280;23715;53.652;8.516;2023-03-18T21:03:28;101409.46;;;12.59;100.00
37878;BME280;23715;53.652;8.516;2023-03-18T21:08:29;101410.73;;;12.92;100.00
37878;BME280;23715;53.652;8.516;2023-03-18T21:13:35;101397.57;;;12.98;100.00
37878;BME280;23715;53.652;8.516;2023-03-18T21:18:36;101386.35;;;13.03;100.00
37878;BME280;23715;53.652;8.516;2023-03-18T21:23:38;101371.16;;;13.02;100.00
37878;BME280;23715;53.652;8.516;2023-03-18T21:28:39;101361.56;;;13.19;100.00
37878;BME280;23715;53.652;8.516;2023-03-18T21:33:39;101355.59;;;12.63;100.00
37878;BME280;23715;53.652;8.516;2023-03-18T21:38:42;101355.59;;;12.63;100.00
37878;BME280;23715;53.652;8.516;2023-03-18T21:43:45;101362.53;;;12.56;100.00
37878;BME280;23715;53.652;8.516;2023-03-18T21:48:46;101361.65;;;12.56;100.00
37878;BME280;23715;53.652;8.516;2023-03-18T21:53:49;101367.08;;;12.50;100.00
37878;BME280;23715;53.652;8.516;2023-03-18T21:58:50;101362.66;;;12.34;100.00
37878;BME280;23715;53.652;8.516;2023-03-18T22:03:50;101353.15;;;12.24;100.00
37878;BME280;23715;53.652;8.516;2023-03-18T22:08:52;101344.08;;;12.19;100.00
37878;BME280;23715;53.652;8.516;2023-03-18T22:13:54;101333.91;;;11.96;100.00
37878;BME280;23715;53.652;8.516;2023-03-18T22:18:57;101327.31;;;11.78;100.00
37878;BME280;23715;53.652;8.516;2023-03-18T22:23:58;101322.19;;;11.80;100.00
37878;BME280;23715;53.652;8.516;2023-03-18T22:29:02;101312.77;;;11.75;100.00
37878;BME280;23715;53.652;8.516;2023-03-18T22:34:02;101318.28;;;11.73;100.00
37878;BME280;23715;53.652;8.516;2023-03-18T22:39:07;101312.19;;;11.65;100.00
37878;BME280;23715;53.652;8.516;2023-03-18T22:44:22;101311.10;;;11.57;100.00
37878;BME280;23715;53.652;8.516;2023-03-18T22:49:25;101317.56;;;11.71;100.00
37878;BME280;23715;53.652;8.516;2023-03-18T22:54:28;101325.50;;;11.78;100.00
37878;BME280;23715;53.652;8.516;2023-03-18T22:59:29;101321.22;;;11.70;100.00
37878;BME280;23715;53.652;8.516;2023-03-18T23:04:32;101309.78;;;11.45;100.00
37878;BME280;23715;53.652;8.516;2023-03-18T23:09:35;101309.78;;;11.45;100.00
37878;BME280;23715;53.652;8.516;2023-03-18T23:14:35;101315.79;;;11.43;100.00
37878;BME280;23715;53.652;8.516;2023-03-18T23:19:37;101312.98;;;11.39;100.00
37878;BME280;23715;53.652;8.516;2023-03-18T23:24:39;101312.91;;;11.07;100.00
37878;BME280;23715;53.652;8.516;2023-03-18T23:29:41;101321.37;;;11.02;100.00
37878;BME280;23715;53.652;8.516;2023-03-18T23:34:46;101321.49;;;11.01;100.00
37878;BME280;23715;53.652;8.516;2023-03-18T23:39:46;101327.72;;;11.01;100.00
37878;BME280;23715;53.652;8.516;2023-03-18T23:44:48;101330.30;;;11.08;100.00
37878;BME280;23715;53.652;8.516;2023-03-18T23:49:49;101335.06;;;11.10;100.00
37878;BME280;23715;53.652;8.516;2023-03-18T23:54:49;101329.69;;;10.88;100.00
37878;BME280;23715;53.652;8.516;2023-03-18T23:59:49;101325.27;;;10.87;100.00
